Terminal Aerodrome Forecast
Issued by NWS Tampa Bay Area, FL

Home | Current Version | Previous Version | Text Only | Print | Product List | Glossary On
Versions: 1 2 3 4 5 6 7 8 9 10 11 12 13 14 15
000
FTUS42 KTBW 281139
TAFSRQ
TAF
KSRQ 281139Z 2812/2912 08005KT P6SM VCSH SCT035 BKN250
     FM281700 VRB03KT P6SM VCTS SCT040CB BKN250
     FM290100 VRB03KT P6SM BKN250=

USA.gov is the U.S. government's official web portal to all federal, state and local government web resources and services.